sensor_id;sensor_type;location;lat;lon;timestamp;P1;durP1;ratioP1;P2;durP2;ratioP2
63784;SDS011;49927;48.146;11.420;2023-01-16T00:00:59;11.07;;;4.03;;
63784;SDS011;49927;48.146;11.420;2023-01-16T00:03:26;22.30;;;5.88;;
63784;SDS011;49927;48.146;11.420;2023-01-16T00:05:52;17.05;;;5.72;;
63784;SDS011;49927;48.146;11.420;2023-01-16T00:08:17;5.15;;;2.45;;
63784;SDS011;49927;48.146;11.420;2023-01-16T00:10:43;6.80;;;2.45;;
63784;SDS011;49927;48.146;11.420;2023-01-16T00:13:09;6.90;;;3.05;;
63784;SDS011;49927;48.146;11.420;2023-01-16T00:15:35;2.78;;;1.85;;
63784;SDS011;49927;48.146;11.420;2023-01-16T00:18:00;8.10;;;2.22;;
63784;SDS011;49927;48.146;11.420;2023-01-16T00:20:27;6.43;;;1.88;;
63784;SDS011;49927;48.146;11.420;2023-01-16T00:22:53;5.55;;;1.90;;
63784;SDS011;49927;48.146;11.420;2023-01-16T00:25:18;3.95;;;1.85;;
63784;SDS011;49927;48.146;11.420;2023-01-16T00:27:44;5.68;;;1.85;;
63784;SDS011;49927;48.146;11.420;2023-01-16T00:30:09;3.53;;;1.15;;
63784;SDS011;49927;48.146;11.420;2023-01-16T00:32:35;11.32;;;2.35;;
63784;SDS011;49927;48.146;11.420;2023-01-16T00:35:01;9.27;;;2.35;;
63784;SDS011;49927;48.146;11.420;2023-01-16T00:37:28;3.13;;;1.30;;
63784;SDS011;49927;48.146;11.420;2023-01-16T00:39:53;3.50;;;1.42;;
63784;SDS011;49927;48.146;11.420;2023-01-16T00:42:19;4.13;;;1.40;;
63784;SDS011;49927;48.146;11.420;2023-01-16T00:44:44;4.35;;;1.55;;
63784;SDS011;49927;48.146;11.420;2023-01-16T00:47:10;1.00;;;0.43;;
63784;SDS011;49927;48.146;11.420;2023-01-16T00:49:35;0.65;;;0.50;;
63784;SDS011;49927;48.146;11.420;2023-01-16T00:52:01;2.97;;;1.10;;
63784;SDS011;49927;48.146;11.420;2023-01-16T00:54:28;2.88;;;1.40;;
63784;SDS011;49927;48.146;11.420;2023-01-16T00:56:53;2.72;;;0.95;;
63784;SDS011;49927;48.146;11.420;2023-01-16T00:59:19;12.60;;;3.55;;
63784;SDS011;49927;48.146;11.420;2023-01-16T01:01:44;2.10;;;0.90;;
63784;SDS011;49927;48.146;11.420;2023-01-16T01:04:10;11.40;;;3.00;;
63784;SDS011;49927;48.146;11.420;2023-01-16T01:06:35;5.47;;;1.70;;
63784;SDS011;49927;48.146;11.420;2023-01-16T01:09:01;5.57;;;1.80;;
63784;SDS011;49927;48.146;11.420;2023-01-16T01:11:28;6.57;;;2.15;;
63784;SDS011;49927;48.146;11.420;2023-01-16T01:13:53;8.45;;;2.95;;
63784;SDS011;49927;48.146;11.420;2023-01-16T01:16:18;6.18;;;3.13;;
63784;SDS011;49927;48.146;11.420;2023-01-16T01:18:44;2.22;;;1.10;;
63784;SDS011;49927;48.146;11.420;2023-01-16T01:21:09;1.83;;;1.08;;
63784;SDS011;49927;48.146;11.420;2023-01-16T01:23:35;1.95;;;0.50;;
63784;SDS011;49927;48.146;11.420;2023-01-16T01:26:04;1.98;;;0.82;;
63784;SDS011;49927;48.146;11.420;2023-01-16T01:28:32;0.93;;;0.47;;
63784;SDS011;49927;48.146;11.420;2023-01-16T01:31:01;3.10;;;1.23;;
63784;SDS011;49927;48.146;11.420;2023-01-16T01:33:27;2.03;;;0.65;;
63784;SDS011;49927;48.146;11.420;2023-01-16T01:35:52;1.38;;;0.70;;
63784;SDS011;49927;48.146;11.420;2023-01-16T01:38:17;2.78;;;0.60;;
63784;SDS011;49927;48.146;11.420;2023-01-16T01:40:43;1.05;;;0.38;;
63784;SDS011;49927;48.146;11.420;2023-01-16T01:43:10;1.88;;;1.00;;
63784;SDS011;49927;48.146;11.420;2023-01-16T01:45:39;1.20;;;0.57;;
63784;SDS011;49927;48.146;11.420;2023-01-16T01:48:11;4.45;;;0.93;;
63784;SDS011;49927;48.146;11.420;2023-01-16T01:50:44;0.93;;;0.60;;
63784;SDS011;49927;48.146;11.420;2023-01-16T01:53:13;0.63;;;0.40;;
63784;SDS011;49927;48.146;11.420;2023-01-16T01:55:40;2.22;;;0.50;;
63784;SDS011;49927;48.146;11.420;2023-01-16T01:58:07;0.80;;;0.77;;
63784;SDS011;49927;48.146;11.420;2023-01-16T02:00:33;0.85;;;0.60;;
63784;SDS011;49927;48.146;11.420;2023-01-16T02:03:01;1.90;;;0.60;;
63784;SDS011;49927;48.146;11.420;2023-01-16T02:05:31;1.02;;;0.50;;
63784;SDS011;49927;48.146;11.420;2023-01-16T02:07:58;0.60;;;0.60;;
63784;SDS011;49927;48.146;11.420;2023-01-16T02:10:27;3.58;;;0.50;;
63784;SDS011;49927;48.146;11.420;2023-01-16T02:12:55;0.30;;;0.30;;
63784;SDS011;49927;48.146;11.420;2023-01-16T02:15:22;1.10;;;0.77;;
63784;SDS011;49927;48.146;11.420;2023-01-16T02:17:48;0.85;;;0.40;;
63784;SDS011;49927;48.146;11.420;2023-01-16T02:20:16;0.40;;;0.40;;
63784;SDS011;49927;48.146;11.420;2023-01-16T02:25:41;1.73;;;0.50;;
63784;SDS011;49927;48.146;11.420;2023-01-16T02:31:23;0.98;;;0.70;;
63784;SDS011;49927;48.146;11.420;2023-01-16T02:34:00;3.28;;;0.57;;
63784;SDS011;49927;48.146;11.420;2023-01-16T02:36:35;1.98;;;0.73;;
63784;SDS011;49927;48.146;11.420;2023-01-16T02:39:06;0.50;;;0.50;;
63784;SDS011;49927;48.146;11.420;2023-01-16T02:41:37;0.88;;;0.55;;
63784;SDS011;49927;48.146;11.420;2023-01-16T02:44:10;1.75;;;0.60;;
63784;SDS011;49927;48.146;11.420;2023-01-16T02:46:43;0.85;;;0.50;;
63784;SDS011;49927;48.146;11.420;2023-01-16T02:49:14;0.75;;;0.68;;
63784;SDS011;49927;48.146;11.420;2023-01-16T02:51:45;0.95;;;0.38;;
63784;SDS011;49927;48.146;11.420;2023-01-16T02:54:16;0.80;;;0.55;;
63784;SDS011;49927;48.146;11.420;2023-01-16T02:56:46;0.80;;;0.45;;
63784;SDS011;49927;48.146;11.420;2023-01-16T02:59:16;2.35;;;0.50;;
63784;SDS011;49927;48.146;11.420;2023-01-16T03:01:43;1.38;;;0.80;;
63784;SDS011;49927;48.146;11.420;2023-01-16T03:07:07;2.15;;;0.50;;
63784;SDS011;49927;48.146;11.420;2023-01-16T03:09:37;5.57;;;0.88;;
63784;SDS011;49927;48.146;11.420;2023-01-16T03:12:17;1.27;;;0.50;;
63784;SDS011;49927;48.146;11.420;2023-01-16T03:14:48;0.50;;;0.43;;
63784;SDS011;49927;48.146;11.420;2023-01-16T03:17:28;2.90;;;0.43;;
63784;SDS011;49927;48.146;11.420;2023-01-16T03:20:07;0.77;;;0.50;;
63784;SDS011;49927;48.146;11.420;2023-01-16T03:22:38;1.17;;;0.70;;
63784;SDS011;49927;48.146;11.420;2023-01-16T03:25:10;0.80;;;0.35;;
63784;SDS011;49927;48.146;11.420;2023-01-16T03:27:44;0.52;;;0.50;;
63784;SDS011;49927;48.146;11.420;2023-01-16T03:30:14;1.27;;;0.70;;
63784;SDS011;49927;48.146;11.420;2023-01-16T03:32:49;0.80;;;0.80;;
63784;SDS011;49927;48.146;11.420;2023-01-16T03:35:17;1.67;;;0.90;;
63784;SDS011;49927;48.146;11.420;2023-01-16T03:37:46;0.82;;;0.60;;
63784;SDS011;49927;48.146;11.420;2023-01-16T03:40:16;0.85;;;0.70;;
63784;SDS011;49927;48.146;11.420;2023-01-16T03:42:43;1.55;;;0.85;;
63784;SDS011;49927;48.146;11.420;2023-01-16T03:45:14;0.70;;;0.60;;
63784;SDS011;49927;48.146;11.420;2023-01-16T03:47:43;1.55;;;0.70;;
63784;SDS011;49927;48.146;11.420;2023-01-16T03:50:14;1.45;;;1.08;;
63784;SDS011;49927;48.146;11.420;2023-01-16T03:52:43;0.90;;;0.70;;
63784;SDS011;49927;48.146;11.420;2023-01-16T03:55:12;1.55;;;1.23;;
63784;SDS011;49927;48.146;11.420;2023-01-16T03:57:43;1.40;;;0.85;;
63784;SDS011;49927;48.146;11.420;2023-01-16T04:00:11;1.55;;;0.95;;
63784;SDS011;49927;48.146;11.420;2023-01-16T04:02:37;1.10;;;0.65;;
63784;SDS011;49927;48.146;11.420;2023-01-16T04:05:11;1.90;;;0.52;;
63784;SDS011;49927;48.146;11.420;2023-01-16T04:07:40;1.38;;;0.45;;
63784;SDS011;49927;48.146;11.420;2023-01-16T04:10:09;1.48;;;0.63;;
63784;SDS011;49927;48.146;11.420;2023-01-16T04:12:37;0.40;;;0.35;;
63784;SDS011;49927;48.146;11.420;2023-01-16T04:15:06;1.20;;;0.40;;
63784;SDS011;49927;48.146;11.420;2023-01-16T04:17:33;2.67;;;2.15;;
63784;SDS011;49927;48.146;11.420;2023-01-16T04:19:59;1.50;;;0.50;;
63784;SDS011;49927;48.146;11.420;2023-01-16T04:22:27;2.75;;;0.88;;
63784;SDS011;49927;48.146;11.420;2023-01-16T04:24:54;1.75;;;0.50;;
63784;SDS011;49927;48.146;11.420;2023-01-16T04:27:20;3.42;;;0.80;;
63784;SDS011;49927;48.146;11.420;2023-01-16T04:29:46;1.52;;;0.70;;
63784;SDS011;49927;48.146;11.420;2023-01-16T04:32:12;1.17;;;0.47;;
63784;SDS011;49927;48.146;11.420;2023-01-16T04:34:37;0.47;;;0.40;;
63784;SDS011;49927;48.146;11.420;2023-01-16T04:37:03;1.33;;;0.60;;
63784;SDS011;49927;48.146;11.420;2023-01-16T04:39:30;0.93;;;0.65;;
63784;SDS011;49927;48.146;11.420;2023-01-16T04:41:56;0.63;;;0.43;;
63784;SDS011;49927;48.146;11.420;2023-01-16T04:44:21;1.33;;;0.45;;
63784;SDS011;49927;48.146;11.420;2023-01-16T04:46:47;1.10;;;0.55;;
63784;SDS011;49927;48.146;11.420;2023-01-16T04:49:12;1.17;;;0.52;;
63784;SDS011;49927;48.146;11.420;2023-01-16T04:51:38;0.68;;;0.50;;
63784;SDS011;49927;48.146;11.420;2023-01-16T04:54:04;1.13;;;0.60;;
63784;SDS011;49927;48.146;11.420;2023-01-16T04:56:31;0.73;;;0.52;;
63784;SDS011;49927;48.146;11.420;2023-01-16T04:58:57;0.85;;;0.68;;
63784;SDS011;49927;48.146;11.420;2023-01-16T05:01:23;0.75;;;0.52;;
63784;SDS011;49927;48.146;11.420;2023-01-16T05:03:49;1.05;;;0.70;;
63784;SDS011;49927;48.146;11.420;2023-01-16T05:06:14;0.57;;;0.52;;
63784;SDS011;49927;48.146;11.420;2023-01-16T05:08:40;0.90;;;0.60;;
63784;SDS011;49927;48.146;11.420;2023-01-16T05:11:05;1.70;;;0.85;;
63784;SDS011;49927;48.146;11.420;2023-01-16T05:13:32;1.67;;;0.68;;
63784;SDS011;49927;48.146;11.420;2023-01-16T05:15:58;1.88;;;0.93;;
63784;SDS011;49927;48.146;11.420;2023-01-16T05:18:23;1.17;;;0.60;;
63784;SDS011;49927;48.146;11.420;2023-01-16T05:20:49;1.05;;;0.80;;
63784;SDS011;49927;48.146;11.420;2023-01-16T05:23:15;0.70;;;0.70;;
63784;SDS011;49927;48.146;11.420;2023-01-16T05:25:40;1.15;;;0.75;;
63784;SDS011;49927;48.146;11.420;2023-01-16T05:28:06;2.80;;;0.82;;
63784;SDS011;49927;48.146;11.420;2023-01-16T05:30:33;0.68;;;0.68;;
63784;SDS011;49927;48.146;11.420;2023-01-16T05:32:58;0.90;;;0.60;;
63784;SDS011;49927;48.146;11.420;2023-01-16T05:35:24;0.85;;;0.73;;
63784;SDS011;49927;48.146;11.420;2023-01-16T05:37:50;1.90;;;0.95;;
63784;SDS011;49927;48.146;11.420;2023-01-16T05:40:15;1.08;;;0.88;;
63784;SDS011;49927;48.146;11.420;2023-01-16T05:42:41;1.73;;;1.02;;
63784;SDS011;49927;48.146;11.420;2023-01-16T05:45:08;1.95;;;0.93;;
63784;SDS011;49927;48.146;11.420;2023-01-16T05:47:35;1.58;;;1.10;;
63784;SDS011;49927;48.146;11.420;2023-01-16T05:50:01;1.52;;;0.63;;
63784;SDS011;49927;48.146;11.420;2023-01-16T05:52:26;1.02;;;0.80;;
63784;SDS011;49927;48.146;11.420;2023-01-16T05:54:52;3.97;;;0.77;;
63784;SDS011;49927;48.146;11.420;2023-01-16T05:57:18;1.55;;;0.70;;
63784;SDS011;49927;48.146;11.420;2023-01-16T05:59:44;1.55;;;0.77;;
63784;SDS011;49927;48.146;11.420;2023-01-16T06:02:12;1.63;;;0.70;;
63784;SDS011;49927;48.146;11.420;2023-01-16T06:04:39;1.08;;;0.90;;
63784;SDS011;49927;48.146;11.420;2023-01-16T06:07:05;1.60;;;0.70;;
63784;SDS011;49927;48.146;11.420;2023-01-16T06:09:30;2.38;;;0.98;;
63784;SDS011;49927;48.146;11.420;2023-01-16T06:11:56;0.95;;;0.82;;
63784;SDS011;49927;48.146;11.420;2023-01-16T06:14:21;1.63;;;0.93;;
63784;SDS011;49927;48.146;11.420;2023-01-16T06:16:46;1.75;;;1.02;;
63784;SDS011;49927;48.146;11.420;2023-01-16T06:19:12;1.42;;;0.93;;
63784;SDS011;49927;48.146;11.420;2023-01-16T06:21:39;1.23;;;0.80;;
63784;SDS011;49927;48.146;11.420;2023-01-16T06:24:05;1.45;;;1.17;;
63784;SDS011;49927;48.146;11.420;2023-01-16T06:26:31;1.63;;;0.75;;
63784;SDS011;49927;48.146;11.420;2023-01-16T06:28:56;1.75;;;1.00;;
63784;SDS011;49927;48.146;11.420;2023-01-16T06:31:22;1.70;;;0.95;;
63784;SDS011;49927;48.146;11.420;2023-01-16T06:33:47;1.00;;;0.70;;
63784;SDS011;49927;48.146;11.420;2023-01-16T06:36:13;2.22;;;1.10;;
63784;SDS011;49927;48.146;11.420;2023-01-16T06:38:40;2.15;;;1.27;;
63784;SDS011;49927;48.146;11.420;2023-01-16T06:41:05;2.70;;;1.27;;
63784;SDS011;49927;48.146;11.420;2023-01-16T06:43:31;4.28;;;1.25;;
63784;SDS011;49927;48.146;11.420;2023-01-16T06:45:56;3.00;;;1.80;;
63784;SDS011;49927;48.146;11.420;2023-01-16T06:48:22;1.35;;;1.25;;
63784;SDS011;49927;48.146;11.420;2023-01-16T06:50:48;3.30;;;1.50;;
63784;SDS011;49927;48.146;11.420;2023-01-16T06:53:13;2.33;;;1.48;;
63784;SDS011;49927;48.146;11.420;2023-01-16T06:55:40;5.85;;;1.10;;
63784;SDS011;49927;48.146;11.420;2023-01-16T06:58:06;1.83;;;1.20;;
63784;SDS011;49927;48.146;11.420;2023-01-16T07:00:32;3.75;;;1.50;;
63784;SDS011;49927;48.146;11.420;2023-01-16T07:02:58;6.10;;;2.15;;
63784;SDS011;49927;48.146;11.420;2023-01-16T07:05:24;4.60;;;1.95;;
63784;SDS011;49927;48.146;11.420;2023-01-16T07:07:50;4.50;;;2.08;;
63784;SDS011;49927;48.146;11.420;2023-01-16T07:10:16;4.68;;;1.60;;
63784;SDS011;49927;48.146;11.420;2023-01-16T07:12:43;2.30;;;1.27;;
63784;SDS011;49927;48.146;11.420;2023-01-16T07:15:09;2.28;;;1.48;;
63784;SDS011;49927;48.146;11.420;2023-01-16T07:17:34;3.15;;;1.48;;
63784;SDS011;49927;48.146;11.420;2023-01-16T07:20:00;2.05;;;0.90;;
63784;SDS011;49927;48.146;11.420;2023-01-16T07:22:25;3.00;;;1.30;;
63784;SDS011;49927;48.146;11.420;2023-01-16T07:24:51;1.83;;;1.20;;
63784;SDS011;49927;48.146;11.420;2023-01-16T07:27:17;1.42;;;1.20;;
63784;SDS011;49927;48.146;11.420;2023-01-16T07:29:44;2.28;;;1.20;;
63784;SDS011;49927;48.146;11.420;2023-01-16T07:32:09;2.28;;;1.30;;
63784;SDS011;49927;48.146;11.420;2023-01-16T07:34:35;2.15;;;0.93;;
63784;SDS011;49927;48.146;11.420;2023-01-16T07:37:01;2.97;;;1.20;;
63784;SDS011;49927;48.146;11.420;2023-01-16T07:39:26;3.17;;;0.95;;
63784;SDS011;49927;48.146;11.420;2023-01-16T07:41:52;2.25;;;1.15;;
63784;SDS011;49927;48.146;11.420;2023-01-16T07:44:17;2.85;;;1.50;;
63784;SDS011;49927;48.146;11.420;2023-01-16T07:46:44;2.60;;;1.38;;
63784;SDS011;49927;48.146;11.420;2023-01-16T07:49:10;2.85;;;1.65;;
63784;SDS011;49927;48.146;11.420;2023-01-16T07:51:35;2.95;;;1.17;;
63784;SDS011;49927;48.146;11.420;2023-01-16T07:54:00;1.17;;;1.02;;
63784;SDS011;49927;48.146;11.420;2023-01-16T07:56:26;1.05;;;0.50;;
63784;SDS011;49927;48.146;11.420;2023-01-16T07:58:51;3.00;;;1.20;;
63784;SDS011;49927;48.146;11.420;2023-01-16T08:01:17;1.63;;;1.00;;
63784;SDS011;49927;48.146;11.420;2023-01-16T08:03:44;1.80;;;1.25;;
63784;SDS011;49927;48.146;11.420;2023-01-16T08:06:09;2.65;;;0.77;;
63784;SDS011;49927;48.146;11.420;2023-01-16T08:08:35;1.83;;;0.90;;
63784;SDS011;49927;48.146;11.420;2023-01-16T08:11:00;1.63;;;0.98;;
63784;SDS011;49927;48.146;11.420;2023-01-16T08:13:26;3.70;;;1.25;;
63784;SDS011;49927;48.146;11.420;2023-01-16T08:15:52;3.17;;;1.13;;
63784;SDS011;49927;48.146;11.420;2023-01-16T08:18:17;1.38;;;0.82;;
63784;SDS011;49927;48.146;11.420;2023-01-16T08:20:44;4.80;;;1.08;;
63784;SDS011;49927;48.146;11.420;2023-01-16T08:23:10;1.13;;;0.75;;
63784;SDS011;49927;48.146;11.420;2023-01-16T08:25:36;1.27;;;0.80;;
63784;SDS011;49927;48.146;11.420;2023-01-16T08:28:01;0.85;;;0.80;;
63784;SDS011;49927;48.146;11.420;2023-01-16T08:30:27;2.65;;;1.15;;
63784;SDS011;49927;48.146;11.420;2023-01-16T08:32:56;1.35;;;0.82;;
63784;SDS011;49927;48.146;11.420;2023-01-16T08:35:22;3.33;;;0.93;;
63784;SDS011;49927;48.146;11.420;2023-01-16T08:37:49;2.05;;;0.95;;
63784;SDS011;49927;48.146;11.420;2023-01-16T08:40:15;4.10;;;1.75;;
63784;SDS011;49927;48.146;11.420;2023-01-16T08:42:40;3.08;;;1.33;;
63784;SDS011;49927;48.146;11.420;2023-01-16T08:45:07;1.95;;;1.10;;
63784;SDS011;49927;48.146;11.420;2023-01-16T08:47:34;2.05;;;1.15;;
63784;SDS011;49927;48.146;11.420;2023-01-16T08:50:01;6.88;;;1.15;;
63784;SDS011;49927;48.146;11.420;2023-01-16T08:52:26;2.10;;;1.17;;
63784;SDS011;49927;48.146;11.420;2023-01-16T08:54:53;2.38;;;1.30;;
63784;SDS011;49927;48.146;11.420;2023-01-16T08:57:19;2.78;;;1.58;;
63784;SDS011;49927;48.146;11.420;2023-01-16T08:59:44;3.08;;;1.25;;
63784;SDS011;49927;48.146;11.420;2023-01-16T09:02:10;6.93;;;1.60;;
63784;SDS011;49927;48.146;11.420;2023-01-16T09:04:36;10.93;;;1.73;;
63784;SDS011;49927;48.146;11.420;2023-01-16T09:07:01;5.05;;;1.45;;
63784;SDS011;49927;48.146;11.420;2023-01-16T09:09:27;3.45;;;1.40;;
63784;SDS011;49927;48.146;11.420;2023-01-16T09:11:56;2.97;;;1.23;;
63784;SDS011;49927;48.146;11.420;2023-01-16T09:14:22;5.95;;;1.27;;
63784;SDS011;49927;48.146;11.420;2023-01-16T09:16:47;1.77;;;1.00;;
63784;SDS011;49927;48.146;11.420;2023-01-16T09:19:13;3.30;;;1.60;;
63784;SDS011;49927;48.146;11.420;2023-01-16T09:21:38;2.28;;;1.48;;
63784;SDS011;49927;48.146;11.420;2023-01-16T09:24:04;3.05;;;2.00;;
63784;SDS011;49927;48.146;11.420;2023-01-16T09:26:30;1.92;;;1.50;;
63784;SDS011;49927;48.146;11.420;2023-01-16T09:28:57;6.00;;;1.45;;
63784;SDS011;49927;48.146;11.420;2023-01-16T09:31:22;2.53;;;1.35;;
63784;SDS011;49927;48.146;11.420;2023-01-16T09:33:48;4.72;;;1.77;;
63784;SDS011;49927;48.146;11.420;2023-01-16T09:36:14;4.43;;;1.42;;
63784;SDS011;49927;48.146;11.420;2023-01-16T09:38:39;5.00;;;1.20;;
63784;SDS011;49927;48.146;11.420;2023-01-16T09:41:05;1.92;;;1.40;;
63784;SDS011;49927;48.146;11.420;2023-01-16T09:43:33;6.47;;;2.20;;
63784;SDS011;49927;48.146;11.420;2023-01-16T09:46:03;7.32;;;1.60;;
63784;SDS011;49927;48.146;11.420;2023-01-16T09:48:31;1.27;;;1.17;;
63784;SDS011;49927;48.146;11.420;2023-01-16T09:51:00;3.30;;;1.55;;
63784;SDS011;49927;48.146;11.420;2023-01-16T09:53:31;4.75;;;1.77;;
63784;SDS011;49927;48.146;11.420;2023-01-16T09:55:59;1.55;;;1.17;;
63784;SDS011;49927;48.146;11.420;2023-01-16T09:58:25;1.02;;;0.88;;
63784;SDS011;49927;48.146;11.420;2023-01-16T10:00:52;5.20;;;1.58;;
63784;SDS011;49927;48.146;11.420;2023-01-16T10:03:19;2.95;;;2.13;;
63784;SDS011;49927;48.146;11.420;2023-01-16T10:05:46;2.45;;;1.80;;
63784;SDS011;49927;48.146;11.420;2023-01-16T10:08:15;3.65;;;1.63;;
63784;SDS011;49927;48.146;11.420;2023-01-16T10:10:44;4.03;;;1.75;;
63784;SDS011;49927;48.146;11.420;2023-01-16T10:13:36;4.22;;;2.20;;
63784;SDS011;49927;48.146;11.420;2023-01-16T10:16:10;4.00;;;1.95;;
63784;SDS011;49927;48.146;11.420;2023-01-16T10:18:43;4.30;;;2.20;;
63784;SDS011;49927;48.146;11.420;2023-01-16T10:21:22;4.13;;;1.88;;
63784;SDS011;49927;48.146;11.420;2023-01-16T10:23:59;3.42;;;1.88;;
63784;SDS011;49927;48.146;11.420;2023-01-16T10:26:27;2.35;;;1.52;;
63784;SDS011;49927;48.146;11.420;2023-01-16T10:28:55;1.40;;;1.30;;
63784;SDS011;49927;48.146;11.420;2023-01-16T10:31:27;1.45;;;1.17;;
63784;SDS011;49927;48.146;11.420;2023-01-16T10:33:57;2.65;;;1.63;;
63784;SDS011;49927;48.146;11.420;2023-01-16T10:36:26;2.97;;;1.80;;
63784;SDS011;49927;48.146;11.420;2023-01-16T10:38:54;2.70;;;1.50;;
63784;SDS011;49927;48.146;11.420;2023-01-16T10:41:21;1.90;;;1.67;;
63784;SDS011;49927;48.146;11.420;2023-01-16T10:43:48;1.75;;;1.58;;
63784;SDS011;49927;48.146;11.420;2023-01-16T10:46:17;2.75;;;1.55;;
63784;SDS011;49927;48.146;11.420;2023-01-16T10:48:44;3.17;;;1.50;;
63784;SDS011;49927;48.146;11.420;2023-01-16T10:51:11;1.70;;;1.42;;
63784;SDS011;49927;48.146;11.420;2023-01-16T10:53:36;1.63;;;1.33;;
63784;SDS011;49927;48.146;11.420;2023-01-16T10:56:03;1.90;;;1.30;;
63784;SDS011;49927;48.146;11.420;2023-01-16T10:58:29;2.30;;;1.90;;
63784;SDS011;49927;48.146;11.420;2023-01-16T11:00:57;2.13;;;1.60;;
63784;SDS011;49927;48.146;11.420;2023-01-16T11:03:26;2.72;;;1.50;;
63784;SDS011;49927;48.146;11.420;2023-01-16T11:06:05;1.77;;;1.20;;
63784;SDS011;49927;48.146;11.420;2023-01-16T11:08:33;2.45;;;1.58;;
63784;SDS011;49927;48.146;11.420;2023-01-16T11:10:59;3.25;;;1.60;;
63784;SDS011;49927;48.146;11.420;2023-01-16T11:13:25;1.50;;;1.40;;
63784;SDS011;49927;48.146;11.420;2023-01-16T11:16:00;3.15;;;1.63;;
63784;SDS011;49927;48.146;11.420;2023-01-16T11:18:27;2.70;;;1.80;;
63784;SDS011;49927;48.146;11.420;2023-01-16T11:20:54;2.95;;;1.50;;
63784;SDS011;49927;48.146;11.420;2023-01-16T11:23:20;2.65;;;1.35;;
63784;SDS011;49927;48.146;11.420;2023-01-16T11:25:49;2.72;;;1.50;;
63784;SDS011;49927;48.146;11.420;2023-01-16T11:28:17;2.45;;;1.20;;
63784;SDS011;49927;48.146;11.420;2023-01-16T11:30:45;2.72;;;1.60;;
63784;SDS011;49927;48.146;11.420;2023-01-16T11:33:12;2.75;;;1.48;;
63784;SDS011;49927;48.146;11.420;2023-01-16T11:35:39;6.30;;;2.30;;
63784;SDS011;49927;48.146;11.420;2023-01-16T11:38:04;2.95;;;1.50;;
63784;SDS011;49927;48.146;11.420;2023-01-16T11:40:31;3.22;;;1.55;;
63784;SDS011;49927;48.146;11.420;2023-01-16T11:43:06;10.13;;;1.70;;
63784;SDS011;49927;48.146;11.420;2023-01-16T11:45:34;2.90;;;1.38;;
63784;SDS011;49927;48.146;11.420;2023-01-16T11:48:05;1.63;;;1.40;;
63784;SDS011;49927;48.146;11.420;2023-01-16T11:50:34;1.85;;;1.08;;
63784;SDS011;49927;48.146;11.420;2023-01-16T11:53:00;1.77;;;1.17;;
63784;SDS011;49927;48.146;11.420;2023-01-16T11:55:28;5.15;;;1.70;;
63784;SDS011;49927;48.146;11.420;2023-01-16T11:57:56;3.38;;;1.50;;
63784;SDS011;49927;48.146;11.420;2023-01-16T12:00:33;2.85;;;1.40;;
63784;SDS011;49927;48.146;11.420;2023-01-16T12:06:14;6.47;;;1.35;;
63784;SDS011;49927;48.146;11.420;2023-01-16T12:08:52;3.95;;;1.30;;
63784;SDS011;49927;48.146;11.420;2023-01-16T12:11:27;1.52;;;1.33;;
63784;SDS011;49927;48.146;11.420;2023-01-16T12:14:03;1.70;;;1.55;;
63784;SDS011;49927;48.146;11.420;2023-01-16T12:16:45;1.73;;;1.20;;
63784;SDS011;49927;48.146;11.420;2023-01-16T12:22:20;1.45;;;1.08;;
63784;SDS011;49927;48.146;11.420;2023-01-16T12:24:53;3.05;;;1.27;;
63784;SDS011;49927;48.146;11.420;2023-01-16T12:27:29;1.88;;;1.30;;
63784;SDS011;49927;48.146;11.420;2023-01-16T12:30:05;2.30;;;1.23;;
63784;SDS011;49927;48.146;11.420;2023-01-16T12:32:44;2.22;;;1.60;;
63784;SDS011;49927;48.146;11.420;2023-01-16T12:35:24;2.03;;;1.38;;
63784;SDS011;49927;48.146;11.420;2023-01-16T12:37:55;2.58;;;1.40;;
63784;SDS011;49927;48.146;11.420;2023-01-16T12:40:29;2.65;;;1.50;;
63784;SDS011;49927;48.146;11.420;2023-01-16T12:43:01;1.33;;;1.10;;
63784;SDS011;49927;48.146;11.420;2023-01-16T12:45:37;1.77;;;1.40;;
63784;SDS011;49927;48.146;11.420;2023-01-16T12:48:12;2.17;;;1.40;;
63784;SDS011;49927;48.146;11.420;2023-01-16T12:50:46;3.15;;;1.52;;
63784;SDS011;49927;48.146;11.420;2023-01-16T12:59:24;2.25;;;1.50;;
63784;SDS011;49927;48.146;11.420;2023-01-16T13:02:15;5.18;;;1.70;;
63784;SDS011;49927;48.146;11.420;2023-01-16T13:04:56;2.92;;;1.50;;
63784;SDS011;49927;48.146;11.420;2023-01-16T13:07:23;3.75;;;1.80;;
63784;SDS011;49927;48.146;11.420;2023-01-16T13:09:50;3.80;;;1.52;;
63784;SDS011;49927;48.146;11.420;2023-01-16T13:12:19;3.08;;;1.85;;
63784;SDS011;49927;48.146;11.420;2023-01-16T13:14:48;6.32;;;1.88;;
63784;SDS011;49927;48.146;11.420;2023-01-16T13:17:17;7.35;;;2.20;;
63784;SDS011;49927;48.146;11.420;2023-01-16T13:19:46;3.88;;;1.92;;
63784;SDS011;49927;48.146;11.420;2023-01-16T13:22:18;4.07;;;2.42;;
63784;SDS011;49927;48.146;11.420;2023-01-16T13:24:47;2.53;;;1.30;;
63784;SDS011;49927;48.146;11.420;2023-01-16T13:27:19;2.88;;;1.67;;
63784;SDS011;49927;48.146;11.420;2023-01-16T13:29:48;3.55;;;2.35;;
63784;SDS011;49927;48.146;11.420;2023-01-16T13:35:02;4.78;;;2.00;;
63784;SDS011;49927;48.146;11.420;2023-01-16T13:37:53;3.10;;;2.00;;
63784;SDS011;49927;48.146;11.420;2023-01-16T13:40:27;5.20;;;1.80;;
63784;SDS011;49927;48.146;11.420;2023-01-16T13:43:24;2.65;;;1.55;;
63784;SDS011;49927;48.146;11.420;2023-01-16T13:45:54;2.97;;;1.50;;
63784;SDS011;49927;48.146;11.420;2023-01-16T13:48:22;2.50;;;1.35;;
63784;SDS011;49927;48.146;11.420;2023-01-16T13:50:52;1.30;;;1.08;;
63784;SDS011;49927;48.146;11.420;2023-01-16T13:53:21;2.83;;;1.10;;
63784;SDS011;49927;48.146;11.420;2023-01-16T13:55:49;4.55;;;1.40;;
63784;SDS011;49927;48.146;11.420;2023-01-16T13:58:15;3.03;;;1.38;;
63784;SDS011;49927;48.146;11.420;2023-01-16T14:00:43;6.38;;;1.48;;
63784;SDS011;49927;48.146;11.420;2023-01-16T14:03:17;2.78;;;1.40;;
63784;SDS011;49927;48.146;11.420;2023-01-16T14:05:46;1.95;;;1.05;;
63784;SDS011;49927;48.146;11.420;2023-01-16T14:08:17;5.38;;;1.70;;
63784;SDS011;49927;48.146;11.420;2023-01-16T14:11:03;4.68;;;1.27;;
63784;SDS011;49927;48.146;11.420;2023-01-16T14:13:38;1.58;;;0.88;;
63784;SDS011;49927;48.146;11.420;2023-01-16T14:18:57;1.10;;;1.00;;
63784;SDS011;49927;48.146;11.420;2023-01-16T14:21:25;1.92;;;0.80;;
63784;SDS011;49927;48.146;11.420;2023-01-16T14:23:52;4.78;;;1.95;;
63784;SDS011;49927;48.146;11.420;2023-01-16T14:26:19;3.70;;;1.10;;
63784;SDS011;49927;48.146;11.420;2023-01-16T14:28:46;5.38;;;1.20;;
63784;SDS011;49927;48.146;11.420;2023-01-16T14:31:18;2.08;;;1.70;;
63784;SDS011;49927;48.146;11.420;2023-01-16T14:33:46;5.72;;;1.88;;
63784;SDS011;49927;48.146;11.420;2023-01-16T14:36:11;4.88;;;1.70;;
63784;SDS011;49927;48.146;11.420;2023-01-16T14:38:43;1.80;;;1.70;;
63784;SDS011;49927;48.146;11.420;2023-01-16T14:41:11;2.28;;;1.30;;
63784;SDS011;49927;48.146;11.420;2023-01-16T14:43:42;2.97;;;2.17;;
63784;SDS011;49927;48.146;11.420;2023-01-16T14:46:13;3.15;;;1.17;;
63784;SDS011;49927;48.146;11.420;2023-01-16T14:48:53;7.45;;;1.23;;
63784;SDS011;49927;48.146;11.420;2023-01-16T14:51:28;4.10;;;1.52;;
63784;SDS011;49927;48.146;11.420;2023-01-16T14:53:57;1.92;;;1.50;;
63784;SDS011;49927;48.146;11.420;2023-01-16T14:56:24;1.92;;;1.35;;
63784;SDS011;49927;48.146;11.420;2023-01-16T14:58:55;5.45;;;1.20;;
63784;SDS011;49927;48.146;11.420;2023-01-16T15:01:25;3.50;;;2.22;;
63784;SDS011;49927;48.146;11.420;2023-01-16T15:03:51;4.32;;;2.67;;
63784;SDS011;49927;48.146;11.420;2023-01-16T15:06:17;3.83;;;2.42;;